createdAt,value
2022-09-14T00:01:25.702Z,19.18
2022-09-14T00:03:59.293Z,19.08
2022-09-14T00:06:26.582Z,19.12
2022-09-14T00:08:54.960Z,19.13
2022-09-14T00:11:23.318Z,19.12
2022-09-14T00:13:52.113Z,19.14
2022-09-14T00:16:23.128Z,19.15
2022-09-14T00:18:54.638Z,19.15
2022-09-14T00:21:23.135Z,19.11
2022-09-14T00:23:50.402Z,19.10
2022-09-14T00:26:20.499Z,19.07
2022-09-14T00:28:55.182Z,18.94
2022-09-14T00:31:23.013Z,18.93
2022-09-14T00:33:51.441Z,18.98
2022-09-14T00:36:21.622Z,18.95
2022-09-14T00:38:49.591Z,18.96
2022-09-14T00:41:19.113Z,18.95
2022-09-14T00:44:09.167Z,18.92
2022-09-14T00:46:38.451Z,18.97
2022-09-14T00:49:08.542Z,18.79
2022-09-14T00:51:38.224Z,18.79
2022-09-14T00:54:07.326Z,18.61
2022-09-14T00:56:34.278Z,18.63
2022-09-14T00:59:07.379Z,18.77
2022-09-14T01:01:34.442Z,18.67
2022-09-14T01:04:02.338Z,18.71
2022-09-14T01:06:41.037Z,18.73
2022-09-14T01:09:45.361Z,18.72
2022-09-14T01:12:20.837Z,18.68
2022-09-14T01:15:08.337Z,18.67
2022-09-14T01:17:43.752Z,18.63
2022-09-14T01:20:34.277Z,18.59
2022-09-14T01:23:24.825Z,18.53
2022-09-14T01:26:24.403Z,18.42
2022-09-14T01:28:55.406Z,18.56
2022-09-14T01:31:50.842Z,18.56
2022-09-14T01:34:34.200Z,18.58
2022-09-14T01:37:25.052Z,18.46
2022-09-14T01:40:33.444Z,18.50
2022-09-14T01:43:36.844Z,18.51
2022-09-14T01:46:08.685Z,18.51
2022-09-14T01:54:09.222Z,18.43
2022-09-14T01:56:39.867Z,18.49
2022-09-14T01:59:25.558Z,18.53
2022-09-14T02:02:32.869Z,18.45
2022-09-14T02:05:23.612Z,18.41
2022-09-14T02:07:50.542Z,18.42
2022-09-14T02:10:18.511Z,18.47
2022-09-14T02:12:45.582Z,18.45
2022-09-14T02:15:15.003Z,18.51
2022-09-14T02:17:41.741Z,18.50
2022-09-14T02:20:13.735Z,18.46
2022-09-14T02:22:40.411Z,18.29
2022-09-14T02:25:08.530Z,18.37
2022-09-14T02:27:36.646Z,18.38
2022-09-14T02:30:05.289Z,18.39
2022-09-14T02:33:00.826Z,18.46
2022-09-14T02:35:41.055Z,18.33
2022-09-14T02:38:46.542Z,18.12
2022-09-14T02:41:19.361Z,18.22
2022-09-14T02:44:10.767Z,18.31
2022-09-14T02:47:04.307Z,18.35
2022-09-14T02:50:30.292Z,18.36
2022-09-14T02:53:20.061Z,18.36
2022-09-14T02:55:50.740Z,18.32
2022-09-14T02:58:17.876Z,18.32
2022-09-14T03:00:49.737Z,18.41
2022-09-14T03:03:19.501Z,18.41
2022-09-14T03:05:46.914Z,18.37
2022-09-14T03:08:13.928Z,18.39
2022-09-14T03:10:43.627Z,18.45
2022-09-14T03:13:11.811Z,18.39
2022-09-14T03:15:38.559Z,18.31
2022-09-14T03:18:08.401Z,18.38
2022-09-14T03:20:37.062Z,18.26
2022-09-14T03:23:05.490Z,18.27
2022-09-14T03:25:36.990Z,18.26
2022-09-14T03:28:03.654Z,18.33
2022-09-14T03:30:30.828Z,18.30
2022-09-14T03:32:59.256Z,18.25
2022-09-14T03:35:28.432Z,18.23
2022-09-14T03:37:55.593Z,18.26
2022-09-14T03:40:23.249Z,18.33
2022-09-14T03:42:52.445Z,18.16
2022-09-14T03:45:21.110Z,18.23
2022-09-14T03:47:48.505Z,18.26
2022-09-14T03:50:15.801Z,18.30
2022-09-14T03:52:42.590Z,18.26
2022-09-14T03:55:10.803Z,18.27
2022-09-14T03:57:38.106Z,18.27
2022-09-14T04:00:06.240Z,18.36
2022-09-14T04:02:32.998Z,18.33
2022-09-14T04:05:00.453Z,18.36
2022-09-14T04:07:27.922Z,18.29
2022-09-14T04:09:55.074Z,18.24
2022-09-14T04:12:21.904Z,18.15
2022-09-14T04:14:48.615Z,18.04
2022-09-14T04:17:17.661Z,18.08
2022-09-14T04:19:44.873Z,18.16
2022-09-14T04:22:12.423Z,18.22
2022-09-14T04:24:39.031Z,18.26
2022-09-14T04:27:05.777Z,18.34
2022-09-14T04:29:33.829Z,18.34
2022-09-14T04:32:01.428Z,18.38
2022-09-14T04:34:28.594Z,18.42
2022-09-14T04:36:55.558Z,18.42
2022-09-14T04:39:23.084Z,18.39
2022-09-14T04:41:51.454Z,18.29
2022-09-14T04:44:19.092Z,18.31
2022-09-14T04:46:47.072Z,18.32
2022-09-14T04:49:15.899Z,18.35
2022-09-14T04:51:43.014Z,18.34
2022-09-14T04:54:09.816Z,18.35
2022-09-14T04:56:37.242Z,18.35
2022-09-14T04:59:06.996Z,18.39
2022-09-14T05:01:40.517Z,18.34
2022-09-14T05:04:08.823Z,18.33
2022-09-14T05:06:38.490Z,18.30
2022-09-14T05:09:07.772Z,18.27
2022-09-14T05:11:36.203Z,18.31
2022-09-14T05:14:03.735Z,18.38
2022-09-14T05:16:32.901Z,18.41
2022-09-14T05:19:02.642Z,18.43
2022-09-14T05:21:31.588Z,18.44
2022-09-14T05:24:04.345Z,18.38
2022-09-14T05:26:32.568Z,18.42
2022-09-14T05:29:02.678Z,18.37
2022-09-14T05:31:31.663Z,18.42
2022-09-14T05:33:59.966Z,18.43
2022-09-14T05:36:27.009Z,18.42
2022-09-14T05:38:54.113Z,18.48
2022-09-14T05:41:22.707Z,18.49
2022-09-14T05:43:51.218Z,18.38
2022-09-14T05:46:22.791Z,18.37
2022-09-14T05:48:52.190Z,18.37
2022-09-14T05:51:25.784Z,18.42
2022-09-14T05:53:57.191Z,18.46
2022-09-14T05:56:26.878Z,18.44
2022-09-14T05:58:56.679Z,18.45
2022-09-14T06:01:32.009Z,18.43
2022-09-14T06:04:02.523Z,18.46
2022-09-14T06:06:31.359Z,18.50
2022-09-14T06:08:58.563Z,18.50
2022-09-14T06:11:33.328Z,18.49
2022-09-14T06:14:01.159Z,18.43
2022-09-14T06:16:29.687Z,18.44
2022-09-14T06:18:58.186Z,18.52
2022-09-14T06:21:31.187Z,18.45
2022-09-14T06:23:58.048Z,18.40
2022-09-14T06:26:25.667Z,18.43
2022-09-14T06:28:52.813Z,18.38
2022-09-14T06:31:22.946Z,18.45
2022-09-14T06:33:51.135Z,18.50
2022-09-14T06:36:23.536Z,18.51
2022-09-14T06:38:52.114Z,18.44
2022-09-14T06:41:22.845Z,18.46
2022-09-14T06:43:53.332Z,18.50
2022-09-14T06:46:24.808Z,18.55
2022-09-14T06:48:59.261Z,18.59
2022-09-14T06:51:27.119Z,18.53
2022-09-14T06:53:55.778Z,18.55
2022-09-14T06:56:22.735Z,18.58
2022-09-14T06:58:52.550Z,18.55
2022-09-14T07:01:21.169Z,18.56
2022-09-14T07:03:48.512Z,18.57
2022-09-14T07:06:24.463Z,18.58
2022-09-14T07:08:53.621Z,18.56
2022-09-14T07:11:22.656Z,18.57
2022-09-14T07:13:49.615Z,18.59
2022-09-14T07:16:16.760Z,18.58
2022-09-14T07:18:46.619Z,18.65
2022-09-14T07:21:17.367Z,18.64
2022-09-14T07:23:46.845Z,18.70
2022-09-14T07:26:17.793Z,18.65
2022-09-14T07:28:49.495Z,18.69
2022-09-14T07:31:42.688Z,18.66
2022-09-14T07:34:10.318Z,18.66
2022-09-14T07:36:37.836Z,18.68
2022-09-14T07:39:08.849Z,18.69
2022-09-14T07:41:37.109Z,18.66
2022-09-14T07:44:08.154Z,18.71
2022-09-14T07:46:41.354Z,18.75
2022-09-14T07:49:09.947Z,18.72
2022-09-14T07:51:39.163Z,18.74
2022-09-14T07:54:08.394Z,18.76
2022-09-14T07:56:35.446Z,18.79
2022-09-14T08:01:50.480Z,18.76
2022-09-14T08:04:17.440Z,18.69
2022-09-14T08:06:44.713Z,18.76
2022-09-14T08:09:13.108Z,18.79
2022-09-14T08:11:40.897Z,18.81
2022-09-14T08:14:14.506Z,18.86
2022-09-14T08:16:42.036Z,18.86
2022-09-14T08:19:17.316Z,18.84
2022-09-14T08:21:47.074Z,18.87
2022-09-14T08:24:18.294Z,18.89
2022-09-14T08:26:47.705Z,18.89
2022-09-14T08:29:17.962Z,18.92
2022-09-14T08:31:46.743Z,18.94
2022-09-14T08:34:17.490Z,18.96
2022-09-14T08:36:48.876Z,18.98
2022-09-14T08:39:16.627Z,18.99
2022-09-14T08:41:56.691Z,19.01
2022-09-14T08:44:37.603Z,19.06
2022-09-14T08:47:09.693Z,19.06
2022-09-14T08:49:45.638Z,19.13
2022-09-14T08:52:29.239Z,19.12
2022-09-14T08:54:59.834Z,19.01
2022-09-14T08:57:44.179Z,19.07
2022-09-14T09:00:17.000Z,19.13
2022-09-14T09:03:25.371Z,19.14
2022-09-14T09:05:58.709Z,19.20
2022-09-14T09:08:34.551Z,19.20
2022-09-14T09:11:02.020Z,19.26
2022-09-14T09:13:31.736Z,19.31
2022-09-14T09:16:01.284Z,19.39
2022-09-14T09:18:32.047Z,19.39
2022-09-14T09:21:04.229Z,19.43
2022-09-14T09:23:33.369Z,19.43
2022-09-14T09:26:31.794Z,19.43
2022-09-14T09:29:02.692Z,19.38
2022-09-14T09:31:34.942Z,19.42
2022-09-14T09:34:02.981Z,19.46
2022-09-14T09:36:37.629Z,19.46
2022-09-14T09:39:06.009Z,19.45
2022-09-14T09:41:57.946Z,19.49
2022-09-14T09:44:25.127Z,19.52
2022-09-14T09:46:55.759Z,19.51
2022-09-14T09:49:30.366Z,19.52
2022-09-14T09:51:57.352Z,19.57
2022-09-14T09:54:27.879Z,19.62
2022-09-14T09:57:00.100Z,19.63
2022-09-14T09:59:41.799Z,19.67
2022-09-14T10:02:41.559Z,19.67
2022-09-14T10:05:11.680Z,19.65
2022-09-14T10:08:10.719Z,19.57
2022-09-14T10:10:46.323Z,19.62
2022-09-14T10:13:38.374Z,19.66
2022-09-14T10:16:17.186Z,19.63
2022-09-14T10:18:49.595Z,19.69
2022-09-14T10:21:21.387Z,19.62
2022-09-14T10:24:23.380Z,19.61
2022-09-14T10:26:50.220Z,19.68
2022-09-14T10:29:35.884Z,19.68
2022-09-14T10:32:18.652Z,19.63
2022-09-14T10:34:48.136Z,19.62
2022-09-14T10:37:39.397Z,19.66
2022-09-14T10:40:17.764Z,19.67
2022-09-14T10:42:53.857Z,19.66
2022-09-14T10:45:23.963Z,19.67
2022-09-14T10:48:07.230Z,19.67
2022-09-14T10:50:55.862Z,19.71
2022-09-14T10:53:56.513Z,19.72
2022-09-14T10:57:08.743Z,19.85
2022-09-14T10:59:48.298Z,19.93
2022-09-14T11:02:27.450Z,20.04
2022-09-14T11:05:41.242Z,20.09
2022-09-14T11:08:46.696Z,20.16
2022-09-14T11:11:34.639Z,20.19
2022-09-14T11:14:44.776Z,20.18
2022-09-14T11:17:42.220Z,20.18
2022-09-14T11:20:39.385Z,20.20
2022-09-14T11:23:38.031Z,20.14
2022-09-14T11:26:12.301Z,20.15
2022-09-14T11:28:54.274Z,20.24
2022-09-14T11:31:21.233Z,20.28
2022-09-14T11:33:57.212Z,20.25
2022-09-14T11:36:34.556Z,20.35
2022-09-14T11:39:25.437Z,20.21
2022-09-14T11:42:02.168Z,20.23
2022-09-14T11:44:38.557Z,20.29
2022-09-14T11:47:19.607Z,20.29
2022-09-14T11:49:56.681Z,20.36
2022-09-14T11:52:32.428Z,20.34
2022-09-14T11:55:01.643Z,20.29
2022-09-14T11:57:33.637Z,20.24
2022-09-14T12:00:07.279Z,20.30
2022-09-14T12:02:59.864Z,20.38
2022-09-14T12:05:31.568Z,20.40
2022-09-14T12:08:03.369Z,20.41
2022-09-14T12:10:31.768Z,20.43
2022-09-14T12:13:19.176Z,20.46
2022-09-14T12:15:46.959Z,20.53
2022-09-14T12:18:23.246Z,20.52
2022-09-14T12:21:00.932Z,20.53
2022-09-14T12:23:43.764Z,20.47
2022-09-14T12:26:32.579Z,20.40
2022-09-14T12:29:20.446Z,20.46
2022-09-14T12:32:24.927Z,20.35
2022-09-14T12:35:30.608Z,20.39
2022-09-14T12:37:57.379Z,20.45
2022-09-14T12:40:35.484Z,20.47
2022-09-14T12:43:51.697Z,20.39
2022-09-14T12:46:38.745Z,20.34
2022-09-14T12:49:33.232Z,20.43
2022-09-14T12:52:05.748Z,20.47
2022-09-14T12:55:14.429Z,20.42
2022-09-14T12:57:58.246Z,20.49
2022-09-14T13:00:27.132Z,20.46
2022-09-14T13:03:58.736Z,20.49
2022-09-14T13:06:34.300Z,20.48
2022-09-14T13:09:03.699Z,20.40
2022-09-14T13:11:36.673Z,20.44
2022-09-14T13:14:05.064Z,20.47
2022-09-14T13:16:55.292Z,20.47
2022-09-14T13:19:27.939Z,20.50
2022-09-14T13:21:58.334Z,20.51
2022-09-14T13:24:45.019Z,20.51
2022-09-14T13:27:31.943Z,20.47
2022-09-14T13:30:01.731Z,20.36
2022-09-14T13:32:29.948Z,20.30
2022-09-14T13:34:59.674Z,20.40
2022-09-14T13:37:26.458Z,20.33
2022-09-14T13:39:56.911Z,20.30
2022-09-14T13:42:23.943Z,20.24
2022-09-14T13:44:52.935Z,20.28
2022-09-14T13:47:22.901Z,20.21
2022-09-14T13:49:51.816Z,20.28
2022-09-14T13:52:49.721Z,20.36
2022-09-14T13:55:21.227Z,20.40
2022-09-14T13:58:14.212Z,20.47
2022-09-14T14:01:02.729Z,20.47
2022-09-14T14:03:36.306Z,20.47
2022-09-14T14:06:36.699Z,20.47
2022-09-14T14:09:09.407Z,20.40
2022-09-14T14:11:42.311Z,20.28
2022-09-14T14:14:31.161Z,20.30
2022-09-14T14:17:21.652Z,20.30
2022-09-14T14:19:51.129Z,20.36
2022-09-14T14:22:20.723Z,20.37
2022-09-14T14:25:12.483Z,20.44
2022-09-14T14:27:38.971Z,20.46
2022-09-14T14:30:18.222Z,20.46
2022-09-14T14:32:50.597Z,20.44
2022-09-14T14:35:22.628Z,20.49
2022-09-14T14:37:50.706Z,20.49
2022-09-14T14:40:18.286Z,20.47
2022-09-14T14:42:45.987Z,20.49
2022-09-14T14:45:19.145Z,20.46
2022-09-14T14:47:52.666Z,20.44
2022-09-14T14:50:22.823Z,20.46
2022-09-14T14:52:57.138Z,20.44
2022-09-14T14:55:37.728Z,20.41
2022-09-14T14:58:15.828Z,20.27
2022-09-14T15:00:44.292Z,20.24
2022-09-14T15:03:10.999Z,20.10
2022-09-14T15:05:45.023Z,20.16
2022-09-14T15:08:13.009Z,20.19
2022-09-14T15:10:40.210Z,20.11
2022-09-14T15:13:09.692Z,20.01
2022-09-14T15:15:38.763Z,20.08
2022-09-14T15:18:07.824Z,20.00
2022-09-14T15:20:35.030Z,19.78
2022-09-14T15:23:02.660Z,19.81
2022-09-14T15:25:29.284Z,19.75
2022-09-14T15:27:56.910Z,19.62
2022-09-14T15:30:26.201Z,19.34
2022-09-14T15:32:53.269Z,19.32
2022-09-14T15:35:22.759Z,19.04
2022-09-14T15:37:49.816Z,18.75
2022-09-14T15:40:16.657Z,18.89
2022-09-14T15:42:44.365Z,18.83
2022-09-14T15:45:11.601Z,18.80
2022-09-14T15:47:45.975Z,18.64
2022-09-14T15:50:21.719Z,18.39
2022-09-14T15:52:53.885Z,18.32
2022-09-14T15:55:22.807Z,18.35
2022-09-14T15:57:53.587Z,18.36
2022-09-14T16:00:25.450Z,18.46
2022-09-14T16:02:59.677Z,18.21
2022-09-14T16:05:28.939Z,18.18
2022-09-14T16:07:59.546Z,18.08
2022-09-14T16:10:29.632Z,18.04
2022-09-14T16:13:00.014Z,18.01
2022-09-14T16:15:34.548Z,18.16
2022-09-14T16:18:04.160Z,18.28
2022-09-14T16:20:34.129Z,18.20
2022-09-14T16:23:01.978Z,18.20
2022-09-14T16:25:33.310Z,18.10
2022-09-14T16:28:04.296Z,18.07
2022-09-14T16:30:37.088Z,18.17
2022-09-14T16:33:10.170Z,18.22
2022-09-14T16:35:39.267Z,18.17
2022-09-14T16:38:07.459Z,18.22
2022-09-14T16:40:41.053Z,18.02
2022-09-14T16:43:11.530Z,18.06
2022-09-14T16:45:43.447Z,18.01
2022-09-14T16:48:12.238Z,17.89
2022-09-14T16:50:42.963Z,17.90
2022-09-14T16:53:12.229Z,17.89
2022-09-14T16:55:42.715Z,17.91
2022-09-14T16:58:14.563Z,18.01
2022-09-14T17:00:44.381Z,18.12
2022-09-14T17:03:12.817Z,18.11
2022-09-14T17:05:45.478Z,18.09
2022-09-14T17:08:15.102Z,18.05
2022-09-14T17:10:46.547Z,18.03
2022-09-14T17:13:19.086Z,17.85
2022-09-14T17:15:50.960Z,17.85
2022-09-14T17:18:21.563Z,17.71
2022-09-14T17:21:04.692Z,17.72
2022-09-14T17:23:36.374Z,17.81
2022-09-14T17:26:05.806Z,17.91
2022-09-14T17:28:36.582Z,17.91
2022-09-14T17:31:07.063Z,17.91
2022-09-14T17:33:38.791Z,17.95
2022-09-14T17:36:07.531Z,17.98
2022-09-14T17:38:40.033Z,17.95
2022-09-14T17:41:16.959Z,17.94
2022-09-14T17:43:45.010Z,17.92
2022-09-14T17:46:17.790Z,17.92
2022-09-14T17:48:48.685Z,17.98
2022-09-14T17:51:22.804Z,17.97
2022-09-14T17:53:55.707Z,17.99
2022-09-14T17:56:30.119Z,17.92
2022-09-14T17:59:03.094Z,17.93
2022-09-14T18:01:33.835Z,17.88
2022-09-14T18:04:05.998Z,17.87
2022-09-14T18:06:37.609Z,17.79
2022-09-14T18:09:15.994Z,17.83
2022-09-14T18:11:50.423Z,17.85
2022-09-14T18:14:22.626Z,17.85
2022-09-14T18:16:51.895Z,17.94
2022-09-14T18:19:22.448Z,17.82
2022-09-14T18:21:53.298Z,17.77
2022-09-14T18:24:22.877Z,17.68
2022-09-14T18:26:52.801Z,17.66
2022-09-14T18:29:27.048Z,17.58
2022-09-14T18:31:59.478Z,17.62
2022-09-14T18:34:32.370Z,17.69
2022-09-14T18:37:01.471Z,17.65
2022-09-14T18:39:31.668Z,17.65
2022-09-14T18:42:00.814Z,17.54
2022-09-14T18:44:30.610Z,17.52
2022-09-14T18:47:01.077Z,17.63
2022-09-14T18:49:32.940Z,17.77
2022-09-14T18:52:06.055Z,17.79
2022-09-14T18:54:34.255Z,17.81
2022-09-14T18:57:05.107Z,17.86
2022-09-14T18:59:36.599Z,17.72
2022-09-14T19:02:06.006Z,17.70
2022-09-14T19:04:37.937Z,17.75
2022-09-14T19:07:10.665Z,17.77
2022-09-14T19:09:39.879Z,17.80
2022-09-14T19:12:11.940Z,17.81
2022-09-14T19:14:42.982Z,17.69
2022-09-14T19:17:16.961Z,17.65
2022-09-14T19:19:44.980Z,17.73
2022-09-14T19:22:16.404Z,17.81
2022-09-14T19:24:49.282Z,17.52
2022-09-14T19:27:19.435Z,17.65
2022-09-14T19:29:50.275Z,17.76
2022-09-14T19:32:24.532Z,17.74
2022-09-14T19:34:58.750Z,17.63
2022-09-14T19:37:37.674Z,17.57
2022-09-14T19:40:08.950Z,17.46
2022-09-14T19:42:42.981Z,17.50
2022-09-14T19:45:19.451Z,17.63
2022-09-14T19:47:51.119Z,17.65
2022-09-14T19:50:24.688Z,17.58
2022-09-14T19:53:00.241Z,17.46
2022-09-14T19:55:39.245Z,17.29
2022-09-14T19:58:13.498Z,17.28
2022-09-14T20:00:47.981Z,17.16
2022-09-14T20:03:24.212Z,17.07
2022-09-14T20:06:07.401Z,16.91
2022-09-14T20:08:36.119Z,16.83
2022-09-14T20:11:08.215Z,16.87
2022-09-14T20:13:36.799Z,16.74
2022-09-14T20:16:33.933Z,16.85
2022-09-14T20:19:21.730Z,16.81
2022-09-14T20:21:58.953Z,16.78
2022-09-14T20:24:35.571Z,16.74
2022-09-14T20:27:10.199Z,16.88
2022-09-14T20:29:39.272Z,16.75
2022-09-14T20:32:12.037Z,16.97
2022-09-14T20:34:43.119Z,17.02
2022-09-14T20:37:19.715Z,16.97
2022-09-14T20:39:50.438Z,17.11
2022-09-14T20:42:19.946Z,17.11
2022-09-14T20:44:50.360Z,17.15
2022-09-14T20:47:23.114Z,17.22
2022-09-14T20:49:53.589Z,17.24
2022-09-14T20:52:22.253Z,17.30
2022-09-14T20:54:52.017Z,17.27
2022-09-14T20:57:23.966Z,17.08
2022-09-14T20:59:54.710Z,17.06
2022-09-14T21:02:23.025Z,17.23
2022-09-14T21:04:53.502Z,17.22
2022-09-14T21:07:23.429Z,17.27
2022-09-14T21:09:56.595Z,17.31
2022-09-14T21:12:28.274Z,17.30
2022-09-14T21:14:57.713Z,17.10
2022-09-14T21:17:29.062Z,17.13
2022-09-14T21:20:04.466Z,17.07
2022-09-14T21:22:33.693Z,17.07
2022-09-14T21:25:03.645Z,17.13
2022-09-14T21:27:35.176Z,17.21
2022-09-14T21:30:06.534Z,17.19
2022-09-14T21:32:40.313Z,17.18
2022-09-14T21:35:13.641Z,17.18
2022-09-14T21:37:51.120Z,17.00
2022-09-14T21:40:24.265Z,16.96
2022-09-14T21:42:58.217Z,16.89
2022-09-14T21:45:30.618Z,17.01
2022-09-14T21:48:05.245Z,17.02
2022-09-14T21:50:45.339Z,17.02
2022-09-14T21:53:16.817Z,16.97
2022-09-14T21:55:50.257Z,16.99
2022-09-14T21:58:23.228Z,17.05
2022-09-14T22:01:00.177Z,17.10
2022-09-14T22:03:31.489Z,17.05
2022-09-14T22:06:07.152Z,17.15
2022-09-14T22:08:40.508Z,17.11
2022-09-14T22:11:22.400Z,16.96
2022-09-14T22:13:55.775Z,17.00
2022-09-14T22:16:26.619Z,17.13
2022-09-14T22:19:02.191Z,17.05
2022-09-14T22:21:34.443Z,16.88
2022-09-14T22:24:07.022Z,17.00
2022-09-14T22:26:36.033Z,17.05
2022-09-14T22:29:06.258Z,17.01
2022-09-14T22:31:34.723Z,16.99
2022-09-14T22:34:07.053Z,17.00
2022-09-14T22:36:40.131Z,17.07
2022-09-14T22:39:10.112Z,16.99
2022-09-14T22:41:38.727Z,16.91
2022-09-14T22:44:10.241Z,16.79
2022-09-14T22:46:38.854Z,16.57
2022-09-14T22:49:10.725Z,16.63
2022-09-14T22:51:41.741Z,16.66
2022-09-14T22:54:11.107Z,16.65
2022-09-14T22:56:41.026Z,16.60
2022-09-14T22:59:13.725Z,16.59
2022-09-14T23:01:43.586Z,16.56
2022-09-14T23:04:15.306Z,16.62
2022-09-14T23:06:47.964Z,16.64
2022-09-14T23:09:19.745Z,16.60
2022-09-14T23:11:49.267Z,16.61
2022-09-14T23:14:20.642Z,16.58
2022-09-14T23:16:51.753Z,16.63
2022-09-14T23:19:22.924Z,16.75
2022-09-14T23:21:54.780Z,16.80
2022-09-14T23:24:32.283Z,16.65
2022-09-14T23:27:02.611Z,16.63
2022-09-14T23:29:30.916Z,16.54
2022-09-14T23:31:59.465Z,16.58
2022-09-14T23:34:27.146Z,16.70
2022-09-14T23:36:58.789Z,16.69
2022-09-14T23:39:31.358Z,16.62
2022-09-14T23:42:02.334Z,16.45
2022-09-14T23:44:30.222Z,16.34
2022-09-14T23:47:00.004Z,16.39
2022-09-14T23:49:31.319Z,16.35
2022-09-14T23:52:02.388Z,16.38
2022-09-14T23:54:34.130Z,16.43
2022-09-14T23:57:04.673Z,16.54
2022-09-14T23:59:34.967Z,16.59
